Pagina principale
METAR-TAF:

METAR-TAF

Aeroporti :

Sion, Svizzera

latitudine: 46-13N, longitudine: 007-20E, altezza: 482 m

Osservazione

Il bollettino è stato emesso 25 minuti fa, alle 02:20 UTC
Vento 2 kt da direzioni variabili
Temperature 7°C
Umidità 70%
Pressione 1027 hPa
Visibilità 10 km o più
nessuna nube inferiore a 1500 m e nessun cumulonembo

METAR: LSGS 240220Z AUTO VRB02KT CAVOK 07/02 Q1027

Ora: 03:45 (02:45 UTC)

Previsione

Il bollettino è stato emesso 12 ore e 20 minuti fa, alle 14:25 UTC
Previsione valida dal 23 alle 15 UTC al 23 alle 24 UTC
Vento 3 kt da direzioni variabili
Visibilità 10 km o più
Nubi sparse ad un'altezza di 8000 ft

TAF: LSGS 231425Z 2315/2324 VRB03KT 9999 SCT080

Osservazioni e previsioni meteorologiche di più di 4000 aeroporti (messaggi METAR e TAF).

Le stazioni disponibili sono rappresentate dai dischi gialli e rossi sulla carta.

Puntare il mouse per vedere il nome della stazione.

Clicca sopra per visualizzare le osservazioni e previsioni meteorologiche.

Per cambiare la mappa : fare clic sui pulsanti verdi con una croce nera per ingrandire, il pulsante verde con un trattino per diminuire, o sulla freccia verde per le mappe adiacenti.


METAR-TAF: